Standort: A- 4920 Schildorn, St. Kollmann 6
Position: Ost 1327'49" Nord 4807'14" 563 m Seehhe
Werte der letzten 24 Stunden
Wetterdaten: aktuell Freitag, 27.05.2022 08:20
Datum Zeit Temp. A. Feuchte A. Luftdruck Regen Wind Richtung Richtung Sonnenschein UV Solar Windben Empfang
27.05.2022 08:20 15,1 C 75 % 1020,2 hPa 0,0 l/m 5,8 km/h S-SW 200 0 min 0,0 UV-I 212 W/m 8,0 km/h 100,00 %
27.05.2022 07:20 14,2 C 78 % 1020,4 hPa 0,0 l/m 8,6 km/h SW 219 0 min 0,0 UV-I 73 W/m 11,3 km/h 100,00 %
27.05.2022 06:20 13,8 C 78 % 1020,5 hPa 0,0 l/m 5,1 km/h S-SW 196 0 min 0,0 UV-I 16 W/m 6,4 km/h 100,00 %
27.05.2022 05:20 13,7 C 78 % 1020,4 hPa 0,0 l/m 0,7 km/h SW 222 0 min 0,0 UV-I 0 W/m 1,6 km/h 100,00 %
27.05.2022 04:20 13,2 C 80 % 1020,4 hPa 0,0 l/m 2,7 km/h SW 224 0 min 0,0 UV-I 0 W/m 4,8 km/h 100,00 %
27.05.2022 03:20 11,9 C 83 % 1020,6 hPa 0,0 l/m 4,6 km/h W-SW 239 0 min 0,0 UV-I 0 W/m 6,4 km/h 100,00 %
27.05.2022 02:20 12,2 C 83 % 1020,8 hPa 0,0 l/m 4,7 km/h SW 236 0 min 0,0 UV-I 0 W/m 6,4 km/h 100,00 %
27.05.2022 01:20 13,1 C 80 % 1021,3 hPa 0,0 l/m 4,4 km/h W-SW 244 0 min 0,0 UV-I 0 W/m 4,8 km/h 100,00 %
27.05.2022 00:20 14,6 C 78 % 1021,5 hPa 0,0 l/m 1,3 km/h SW 232 0 min 0,0 UV-I 0 W/m 3,2 km/h 100,00 %
26.05.2022 23:20 13,4 C 84 % 1021,6 hPa 0,0 l/m 3,1 km/h SW 226 0 min 0,0 UV-I 0 W/m 3,2 km/h 100,00 %
26.05.2022 22:20 13,0 C 82 % 1021,5 hPa 0,0 l/m 4,1 km/h S-SW 197 0 min 0,0 UV-I 0 W/m 4,8 km/h 100,00 %
26.05.2022 21:20 14,4 C 79 % 1021,1 hPa 0,0 l/m 4,9 km/h S-SW 205 0 min 0,0 UV-I 0 W/m 6,4 km/h 100,00 %
26.05.2022 20:20 17,2 C 71 % 1020,9 hPa 0,0 l/m 0,0 km/h W-SW 249 0 min 0,0 UV-I 18 W/m 0,0 km/h 100,00 %
26.05.2022 19:20 18,4 C 58 % 1020,9 hPa 0,0 l/m 8,0 km/h NW 319 29 min 0,0 UV-I 80 W/m 11,3 km/h 100,00 %
26.05.2022 18:20 18,9 C 59 % 1020,9 hPa 0,0 l/m 9,6 km/h NW 315 19 min 0,0 UV-I 130 W/m 16,1 km/h 100,00 %
26.05.2022 17:20 19,2 C 56 % 1020,9 hPa 0,0 l/m 8,4 km/h NW 309 23 min 0,0 UV-I 199 W/m 11,3 km/h 100,00 %
26.05.2022 16:20 19,2 C 58 % 1021,1 hPa 0,0 l/m 9,4 km/h W-SW 253 25 min 2,9 UV-I 316 W/m 12,9 km/h 100,00 %
26.05.2022 15:20 19,3 C 56 % 1021,7 hPa 0,0 l/m 15,8 km/h W 267 38 min 3,1 UV-I 865 W/m 20,9 km/h 100,00 %
26.05.2022 14:20 18,3 C 59 % 1022,1 hPa 0,0 l/m 8,9 km/h W-NW 283 23 min 6,2 UV-I 446 W/m 12,9 km/h 100,00 %
26.05.2022 13:20 18,8 C 59 % 1022,2 hPa 0,0 l/m 10,9 km/h W 270 26 min 3,5 UV-I 369 W/m 16,1 km/h 100,00 %
26.05.2022 12:20 17,9 C 59 % 1022,6 hPa 0,0 l/m 5,2 km/h W 274 21 min 6,7 UV-I 1111 W/m 8,0 km/h 100,00 %
26.05.2022 11:20 17,6 C 60 % 1022,5 hPa 0,0 l/m 4,4 km/h S-SW 212 60 min 4,2 UV-I 690 W/m 8,0 km/h 100,00 %
26.05.2022 10:20 16,7 C 62 % 1022,5 hPa 0,0 l/m 8,0 km/h W-NW 282 60 min 3,7 UV-I 726 W/m 12,9 km/h 100,00 %
26.05.2022 09:20 15,7 C 68 % 1022,4 hPa 0,0 l/m 6,8 km/h W-SW 250 18 min 1,4 UV-I 343 W/m 9,7 km/h 100,00 %
26.05.2022 09:00 15,7 C 66 % 1022,4 hPa 0,0 l/m 12,7 km/h W-SW 253 0 min 1,6 UV-I 552 W/m 16,1 km/h 100,00 %
_ Min-Zeit 02:40 16:53 07:53 - 20:13 - - - - - 20:13 09:00
Minimum _ 11,7 C 52 % 1020,1 hPa - 0,0 km/h - - - - - 0,0 km/h 100,00 %
_ Max-Zeit 16:36 23:30 11:57 09:00 13:42 - - 09:00 12:45 12:51 13:42 09:00
Maximum _ 20,0 C 86 % 1022,8 hPa 0,0 l/m 20,3 km/h
W-NW
- - 1 min 7,2 UV-I 1196 W/m 29,0 km/h
W-NW
100,00 %
Durchschnitt _ 15,8 C 70 % 1021,4 hPa #0,0 l/m 7,0 km/h SW - #0 min. 0,0 UV-I 73 W/m 9,7 km/h 100,00 %
Daten ab 1. Mai 2002 - die Jahresstatistiken sind aber falsch (grere Aufzeichnungslcken)